Time;durP1;ratioP1;P1;durP2;ratioP2;P2;SDS_P1;SDS_P2;PMS_P1;PMS_P2;Temp;Humidity;BMP_temperature;BMP_pressure;BME280_temperature;BME280_humidity;BME280_pressure;Samples;Min_cycle;Max_cycle;Signal;HPM_P1;HPM_P2
2021/04/07 00:00:52;;;;;;;2.83;0.10;;;;;;;4.79;56.82;98672.50;5092160;28;20333;-68
2021/04/07 00:03:20;;;;;;;0.00;0.00;;;;;;;4.76;57.17;98671.91;5092375;28;20199;-68
2021/04/07 00:05:47;;;;;;;0.00;0.00;;;;;;;4.75;57.56;98680.84;5091666;28;20265;-68
2021/04/07 00:08:18;;;;;;;0.00;0.00;;;;;;;4.79;57.29;98690.28;5087303;28;20229;-68
2021/04/07 00:10:45;;;;;;;1.30;0.20;;;;;;;4.74;57.57;98674.69;5093712;28;20258;-72
2021/04/07 00:13:14;;;;;;;0.20;0.20;;;;;;;4.74;57.76;98679.16;5083926;28;20251;-69
2021/04/07 00:15:43;;;;;;;0.00;0.00;;;;;;;4.71;58.04;98671.41;5087628;28;20199;-69
2021/04/07 00:18:11;;;;;;;1.60;0.00;;;;;;;4.67;58.15;98668.16;5087019;28;20228;-69
2021/04/07 00:20:40;;;;;;;0.20;0.17;;;;;;;4.68;57.45;98678.66;5091847;28;20211;-69
2021/04/07 00:23:08;;;;;;;0.03;0.03;;;;;;;4.36;57.36;98627.16;5090553;28;20200;-69
2021/04/07 00:25:36;;;;;;;0.00;0.00;;;;;;;4.60;58.51;98688.19;5090895;28;20214;-73
2021/04/07 00:28:05;;;;;;;0.00;0.00;;;;;;;4.53;58.94;98684.28;5090881;28;20208;-73
2021/04/07 00:30:34;;;;;;;0.27;0.10;;;;;;;4.41;59.00;98666.63;5089148;28;20603;-73
2021/04/07 00:33:03;;;;;;;1999.90;999.90;;;;;;;4.52;58.33;98691.41;5089452;28;20204;-69
2021/04/07 00:35:31;;;;;;;593.80;203.13;;;;;;;4.51;58.49;98684.41;5090326;28;20194;-74
2021/04/07 00:37:58;;;;;;;17.53;8.23;;;;;;;4.51;59.46;98691.53;5090392;28;20205;-70
2021/04/07 00:40:26;;;;;;;12.43;6.33;;;;;;;4.49;58.89;98686.34;5085430;28;20270;-73
2021/04/07 00:42:55;;;;;;;1.30;1.20;;;;;;;4.50;59.45;98693.34;5090611;28;20275;-74
2021/04/07 00:45:23;;;;;;;3.13;1.63;;;;;;;4.55;58.54;98685.88;5091404;28;20220;-73
2021/04/07 00:47:52;;;;;;;1.40;1.30;;;;;;;4.55;58.59;98680.56;5085258;28;20201;-73
2021/04/07 00:50:22;;;;;;;0.87;0.87;;;;;;;4.58;58.99;98690.09;5090212;28;20262;-73
2021/04/07 00:52:50;;;;;;;0.83;0.83;;;;;;;4.61;58.81;98684.59;5091979;28;20254;-73
2021/04/07 00:55:25;;;;;;;0.90;0.90;;;;;;;4.60;59.15;98693.53;5087855;28;20209;-73
2021/04/07 00:57:54;;;;;;;1.50;1.33;;;;;;;4.49;58.88;98670.41;5087412;28;20296;-69
2021/04/07 01:00:23;;;;;;;2.70;0.83;;;;;;;4.57;59.69;98686.59;5089505;28;20224;-69
2021/04/07 01:02:53;;;;;;;4.57;2.00;;;;;;;4.52;60.16;98685.25;5071827;28;20190;-69
2021/04/07 01:05:22;;;;;;;1.00;1.00;;;;;;;4.49;60.43;98686.34;5072978;28;20217;-69
2021/04/07 01:07:49;;;;;;;2.23;2.00;;;;;;;4.53;59.60;98687.78;5074176;28;20229;-69
2021/04/07 01:10:18;;;;;;;1.83;1.53;;;;;;;4.58;59.07;98680.31;5084884;28;20205;-69
2021/04/07 01:12:45;;;;;;;1.33;1.17;;;;;;;4.59;59.11;98673.19;5083463;28;20204;-69
2021/04/07 01:15:14;;;;;;;0.60;0.60;;;;;;;4.59;59.91;98667.88;5082695;28;20220;-68
2021/04/07 01:17:42;;;;;;;0.40;0.40;;;;;;;4.61;60.05;98685.44;5084144;28;20227;-69
2021/04/07 01:20:12;;;;;;;0.30;0.30;;;;;;;4.56;60.33;98684.06;5076815;28;20287;-69
2021/04/07 01:22:41;;;;;;;0.63;0.60;;;;;;;4.53;60.21;98687.78;5080748;28;20208;-69
2021/04/07 01:25:11;;;;;;;0.30;0.30;;;;;;;4.07;60.47;98615.22;5079317;28;20560;-69
2021/04/07 01:27:39;;;;;;;4.53;0.27;;;;;;;4.48;60.45;98694.44;5089484;28;20247;-69
2021/04/07 01:30:09;;;;;;;0.10;0.10;;;;;;;4.48;60.36;98692.63;5078581;28;20235;-68
2021/04/07 01:32:36;;;;;;;0.10;0.10;;;;;;;4.41;60.23;98683.44;5069373;28;20205;-69
2021/04/07 01:35:05;;;;;;;0.53;0.27;;;;;;;4.48;60.29;98692.63;5087029;28;20251;-67
2021/04/07 01:37:34;;;;;;;2.90;0.20;;;;;;;4.47;60.18;98693.59;5073296;28;20205;-68
2021/04/07 01:40:02;;;;;;;0.00;0.00;;;;;;;4.47;60.56;98698.06;5112166;27;20216;-68
2021/04/07 01:42:31;;;;;;;0.03;0.03;;;;;;;4.36;60.48;98680.28;5084753;28;20207;-68
2021/04/07 01:45:00;;;;;;;0.07;0.07;;;;;;;4.32;60.30;98681.47;5089290;28;20256;-68
2021/04/07 01:47:29;;;;;;;0.30;0.30;;;;;;;4.41;60.47;98699.38;5076962;28;20201;-68
2021/04/07 01:49:59;;;;;;;0.10;0.10;;;;;;;4.44;60.14;98704.44;5081469;28;20233;-68
2021/04/07 01:52:26;;;;;;;0.20;0.20;;;;;;;3.91;59.76;98608.41;5086845;28;20210;-68
2021/04/07 01:54:54;;;;;;;0.73;0.17;;;;;;;4.41;60.63;98704.69;5072758;28;20618;-68
2021/04/07 01:57:22;;;;;;;0.13;0.13;;;;;;;4.42;60.18;98706.38;5084036;28;20664;-68
2021/04/07 01:59:50;;;;;;;0.30;0.30;;;;;;;4.39;60.47;98709.28;5086185;28;20736;-68
2021/04/07 02:02:17;;;;;;;0.10;0.10;;;;;;;4.01;60.65;98654.56;5090716;28;20266;-72
2021/04/07 02:04:45;;;;;;;0.20;0.20;;;;;;;4.36;61.19;98714.81;5075306;28;20201;-68
2021/04/07 02:07:14;;;;;;;0.33;0.20;;;;;;;4.16;60.39;98689.75;5081995;28;20739;-67
2021/04/07 02:09:42;;;;;;;0.10;0.10;;;;;;;4.31;61.13;98709.00;5073167;28;20197;-72
2021/04/07 02:12:11;;;;;;;0.23;0.10;;;;;;;4.34;60.00;98716.75;5078345;28;20224;-72
2021/04/07 02:14:39;;;;;;;0.10;0.10;;;;;;;4.30;60.33;98720.59;5115028;27;20232;-73
2021/04/07 02:17:07;;;;;;;1.30;0.20;;;;;;;4.25;60.11;98725.38;5089747;28;20204;-68
2021/04/07 02:19:36;;;;;;;1.70;0.20;;;;;;;4.07;60.17;98700.22;5083446;28;20223;-67
2021/04/07 02:22:06;;;;;;;0.10;0.10;;;;;;;4.16;60.50;98720.75;5076115;28;20221;-68
2021/04/07 02:24:34;;;;;;;0.37;0.10;;;;;;;4.18;60.53;98725.00;5073749;28;20210;-72
2021/04/07 02:27:02;;;;;;;0.10;0.10;;;;;;;4.12;61.24;98729.94;5088649;28;20200;-72
2021/04/07 02:29:30;;;;;;;0.00;0.00;;;;;;;3.72;60.67;98658.53;5076646;28;20203;-72
2021/04/07 02:31:57;;;;;;;0.40;0.30;;;;;;;4.15;60.83;98725.22;5069753;28;20205;-67
2021/04/07 02:34:25;;;;;;;2.43;2.20;;;;;;;4.18;61.03;98732.13;5080837;28;20256;-68
2021/04/07 02:36:53;;;;;;;204.90;100.17;;;;;;;4.24;60.84;98737.81;5069984;28;20219;-68
2021/04/07 02:39:20;;;;;;;5.90;3.97;;;;;;;4.26;60.50;98738.53;5072270;28;20205;-68
2021/04/07 02:41:47;;;;;;;1.30;0.93;;;;;;;4.18;63.72;98734.78;5084610;28;20254;-72
2021/04/07 02:44:15;;;;;;;4.77;4.10;;;;;;;4.26;61.64;98737.69;5090196;28;20192;-72
2021/04/07 02:46:42;;;;;;;3.00;1.10;;;;;;;4.24;61.19;98729.84;5078736;28;20251;-73
2021/04/07 02:49:10;;;;;;;0.70;0.60;;;;;;;4.38;61.43;98744.78;5079803;28;20257;-73
2021/04/07 02:51:38;;;;;;;1.03;0.53;;;;;;;4.27;62.50;98744.72;5071932;28;20197;-68
2021/04/07 02:54:06;;;;;;;1.33;0.60;;;;;;;4.28;62.40;98754.38;5076515;28;20219;-68
2021/04/07 02:56:33;;;;;;;1.07;1.07;;;;;;;4.28;62.24;98757.88;5085305;28;20752;-68
2021/04/07 02:59:01;;;;;;;0.10;0.10;;;;;;;3.82;62.92;98678.13;5082391;28;20215;-68
2021/04/07 03:01:28;;;;;;;1.00;1.00;;;;;;;4.24;64.04;98748.44;5082096;28;20550;-67
2021/04/07 03:03:56;;;;;;;1.87;1.30;;;;;;;4.12;63.47;98744.06;5080689;28;20210;-68
2021/04/07 03:06:23;;;;;;;1.10;1.00;;;;;;;4.24;64.98;98755.56;5082016;28;20196;-68
2021/04/07 03:08:51;;;;;;;0.40;0.40;;;;;;;4.19;65.06;98758.56;5080914;28;20224;-67
2021/04/07 03:11:18;;;;;;;1.20;0.57;;;;;;;4.21;64.93;98761.97;5083706;28;20200;-72
2021/04/07 03:13:46;;;;;;;0.30;0.20;;;;;;;4.17;64.92;98762.28;5077688;28;20269;-72
2021/04/07 03:16:13;;;;;;;0.20;0.20;;;;;;;4.14;64.42;98765.19;5071420;28;20196;-72
2021/04/07 03:18:40;;;;;;;0.13;0.13;;;;;;;4.12;64.94;98764.44;5078474;28;20247;-71
2021/04/07 03:21:09;;;;;;;0.30;0.10;;;;;;;4.02;65.81;98772.25;5083154;28;21679;-71
2021/04/07 03:23:36;;;;;;;0.50;0.17;;;;;;;3.98;65.18;98771.63;5083349;28;20204;-71
2021/04/07 03:26:04;;;;;;;0.20;0.20;;;;;;;3.92;65.10;98765.88;5079558;28;20352;-71
2021/04/07 03:28:32;;;;;;;0.10;0.10;;;;;;;3.97;64.68;98769.91;5080048;28;20862;-71
2021/04/07 03:30:59;;;;;;;0.10;0.10;;;;;;;3.99;64.33;98775.97;5085716;28;20196;-72
2021/04/07 03:33:29;;;;;;;0.20;0.10;;;;;;;4.00;65.01;98769.72;5086555;28;20222;-71
2021/04/07 03:35:58;;;;;;;0.20;0.20;;;;;;;4.07;63.36;98771.91;5086888;28;20576;-71
2021/04/07 03:38:25;;;;;;;0.17;0.17;;;;;;;3.62;63.01;98702.59;5076798;28;20236;-71
2021/04/07 03:40:54;;;;;;;0.10;0.10;;;;;;;4.02;63.13;98778.41;5084985;28;20193;-71
2021/04/07 03:43:24;;;;;;;0.33;0.13;;;;;;;3.96;63.40;98777.97;5087137;28;20608;-71
2021/04/07 03:45:53;;;;;;;1.80;0.40;;;;;;;3.97;63.79;98791.16;5086625;28;20197;-67
2021/04/07 03:48:22;;;;;;;1.90;0.17;;;;;;;3.96;64.52;98788.59;5088125;28;20283;-69
2021/04/07 03:50:50;;;;;;;0.20;0.20;;;;;;;3.59;63.17;98718.75;5082445;28;20203;-67
2021/04/07 03:53:18;;;;;;;4.90;0.10;;;;;;;3.92;65.61;98801.25;5081185;28;20261;-67
2021/04/07 03:55:47;;;;;;;0.27;0.27;;;;;;;3.87;65.18;98805.19;5072698;28;20319;-67
2021/04/07 03:58:14;;;;;;;0.20;0.10;;;;;;;3.87;65.54;98813.16;5086104;28;20200;-71
2021/04/07 04:00:43;;;;;;;0.97;0.30;;;;;;;3.66;67.12;98775.72;5087199;28;20687;-72
2021/04/07 04:03:10;;;;;;;1.40;0.20;;;;;;;3.42;67.07;98752.66;5086619;28;20192;-67
2021/04/07 04:05:38;;;;;;;0.87;0.30;;;;;;;3.80;66.96;98826.03;5086542;28;20775;-71
2021/04/07 04:08:07;;;;;;;0.33;0.20;;;;;;;3.35;65.88;98748.72;5084175;28;20240;-68
2021/04/07 04:10:34;;;;;;;0.40;0.20;;;;;;;3.89;65.36;98829.84;5081042;28;21133;-71
2021/04/07 04:13:02;;;;;;;3.60;0.40;;;;;;;3.88;65.68;98839.59;5081758;28;20196;-71
2021/04/07 04:15:30;;;;;;;0.10;0.10;;;;;;;3.87;65.74;98840.56;5073384;28;20248;-68
2021/04/07 04:17:58;;;;;;;1.60;0.37;;;;;;;3.90;65.08;98843.00;5077926;28;20306;-68
2021/04/07 04:20:26;;;;;;;0.00;0.00;;;;;;;3.78;66.10;98835.91;5083063;28;20201;-72
2021/04/07 04:22:54;;;;;;;1.93;0.00;;;;;;;3.80;66.26;98844.63;5083067;28;20681;-72
2021/04/07 04:25:22;;;;;;;0.00;0.00;;;;;;;3.73;65.88;98853.97;5078576;28;20545;-68
2021/04/07 04:27:50;;;;;;;0.00;0.00;;;;;;;3.64;67.32;98851.94;5075435;28;20202;-69
2021/04/07 04:30:19;;;;;;;0.30;0.30;;;;;;;3.64;67.62;98866.06;5075528;28;20545;-70
2021/04/07 04:32:47;;;;;;;0.50;0.10;;;;;;;3.47;67.43;98834.56;5084484;28;20195;-74
2021/04/07 04:35:16;;;;;;;127.33;62.43;;;;;;;3.51;68.70;98851.97;5077575;28;20243;-74
2021/04/07 04:37:45;;;;;;;2.87;2.53;;;;;;;3.25;67.71;98818.44;5075374;28;20219;-74
2021/04/07 04:40:14;;;;;;;0.97;0.97;;;;;;;3.66;69.23;98873.91;5081225;28;20326;-74
2021/04/07 04:42:41;;;;;;;1.07;0.97;;;;;;;3.71;68.29;98885.09;5087972;28;20289;-74
2021/04/07 04:45:10;;;;;;;2.23;1.57;;;;;;;3.75;68.67;98891.88;5090013;28;20196;-74
2021/04/07 04:47:37;;;;;;;2.23;0.60;;;;;;;3.82;68.32;98898.44;5078471;28;20197;-70
2021/04/07 04:50:08;;;;;;;1.20;1.00;;;;;;;3.89;69.22;98905.03;5085222;28;20674;-74
2021/04/07 04:52:37;;;;;;;1.33;1.23;;;;;;;3.89;68.41;98898.88;5079503;28;20220;-74
2021/04/07 04:55:06;;;;;;;6.13;4.70;;;;;;;3.96;68.23;98905.44;5077815;28;20231;-70
2021/04/07 04:57:34;;;;;;;1.67;1.57;;;;;;;3.95;69.59;98919.66;5083745;28;20189;-70
2021/04/07 05:00:01;;;;;;;0.67;0.67;;;;;;;3.95;69.78;98923.16;5088957;28;20207;-70
2021/04/07 05:02:29;;;;;;;0.50;0.50;;;;;;;4.03;68.97;98934.13;5088489;28;20203;-70
2021/04/07 05:04:56;;;;;;;0.50;0.30;;;;;;;4.05;69.74;98918.94;5085324;28;20254;-70
2021/04/07 05:07:23;;;;;;;1.20;0.63;;;;;;;4.11;68.67;98935.38;5088769;28;20290;-70
2021/04/07 05:09:51;;;;;;;0.70;0.40;;;;;;;4.08;70.48;98943.56;5086604;28;20216;-70
2021/04/07 05:12:19;;;;;;;0.27;0.27;;;;;;;3.89;70.69;98925.41;5080004;28;20269;-71
2021/04/07 05:14:48;;;;;;;2.63;0.40;;;;;;;4.04;70.18;98951.75;5077085;28;20220;-70
2021/04/07 05:17:15;;;;;;;1.27;1.17;;;;;;;4.10;69.92;98957.59;5082495;28;20280;-70
2021/04/07 05:19:43;;;;;;;0.40;0.40;;;;;;;4.18;68.95;98961.41;5078072;28;20545;-68
2021/04/07 05:22:10;;;;;;;0.13;0.13;;;;;;;4.15;69.69;98963.44;5073940;28;20201;-69
2021/04/07 05:24:38;;;;;;;1.87;0.10;;;;;;;4.18;68.91;98973.84;5077831;28;22029;-69
2021/04/07 05:27:06;;;;;;;0.30;0.20;;;;;;;4.14;68.90;98973.19;5074678;28;20756;-69
2021/04/07 05:29:34;;;;;;;0.20;0.20;;;;;;;4.12;69.99;98974.28;5081069;28;20192;-70
2021/04/07 05:32:01;;;;;;;0.30;0.13;;;;;;;4.01;69.55;98965.25;5077604;28;20193;-69
2021/04/07 05:34:29;;;;;;;0.07;0.07;;;;;;;4.00;69.41;98976.84;5080442;28;20211;-69
2021/04/07 05:36:56;;;;;;;0.53;0.33;;;;;;;3.85;71.35;98991.16;5072975;28;20275;-70
2021/04/07 05:39:23;;;;;;;0.83;0.20;;;;;;;3.89;69.48;98987.31;5076420;28;20214;-70
2021/04/07 05:41:51;;;;;;;0.20;0.20;;;;;;;3.79;69.38;98985.41;5077231;28;20272;-70
2021/04/07 05:44:19;;;;;;;1.43;0.43;;;;;;;3.73;69.80;98984.88;5076944;28;20188;-70
2021/04/07 05:46:46;;;;;;;0.10;0.10;;;;;;;3.71;69.53;98993.91;5084337;28;20624;-70
2021/04/07 05:49:14;;;;;;;0.90;0.57;;;;;;;3.71;69.11;99004.53;5079118;28;20192;-70
2021/04/07 05:51:41;;;;;;;0.23;0.23;;;;;;;3.47;69.25;98979.66;5077941;28;20208;-70
2021/04/07 05:54:09;;;;;;;0.70;0.40;;;;;;;3.50;69.53;98990.03;5076490;28;20234;-71
2021/04/07 05:56:36;;;;;;;1.70;0.30;;;;;;;3.40;69.27;98984.53;5079586;28;20617;-71
2021/04/07 05:59:03;;;;;;;1.80;0.40;;;;;;;3.50;69.86;99017.44;5077003;28;20188;-71
2021/04/07 06:01:32;;;;;;;2.27;0.30;;;;;;;3.43;69.79;99017.00;5074589;28;20407;-71
2021/04/07 06:03:59;;;;;;;0.57;0.53;;;;;;;3.37;68.93;99014.75;5075447;28;20201;-70
2021/04/07 06:06:26;;;;;;;0.30;0.30;;;;;;;3.41;69.30;99026.88;5077129;28;20197;-71
2021/04/07 06:08:54;;;;;;;0.87;0.50;;;;;;;3.15;69.19;98985.28;5074616;28;20237;-71
2021/04/07 06:11:21;;;;;;;0.20;0.20;;;;;;;3.46;68.15;99028.34;5075202;28;21727;-71
2021/04/07 06:13:50;;;;;;;1.53;0.60;;;;;;;3.43;68.55;99019.66;5103635;27;20679;-73
2021/04/07 06:16:17;;;;;;;0.73;0.27;;;;;;;3.48;69.38;99023.78;5074745;28;20223;-73
2021/04/07 06:18:45;;;;;;;2.83;0.90;;;;;;;3.19;69.36;98981.47;5078287;28;20547;-71
2021/04/07 06:21:14;;;;;;;0.40;0.37;;;;;;;3.53;70.28;99037.59;5076900;28;20207;-70
2021/04/07 06:23:41;;;;;;;2.03;0.30;;;;;;;3.54;71.53;99047.25;5072594;28;20287;-70
2021/04/07 06:26:09;;;;;;;1.30;0.30;;;;;;;3.61;70.89;99049.41;5075828;28;20195;-70
2021/04/07 06:28:36;;;;;;;5.40;0.80;;;;;;;3.67;70.22;99045.47;5075330;28;20648;-70
2021/04/07 06:31:04;;;;;;;1.13;0.37;;;;;;;3.65;71.42;99056.19;5079510;28;20365;-70
2021/04/07 06:33:33;;;;;;;1.40;0.47;;;;;;;3.36;71.82;99013.03;5075761;28;20203;-72
2021/04/07 06:36:04;;;;;;;2.47;0.50;;;;;;;3.65;69.95;99026.16;5079686;28;20708;-71
2021/04/07 06:38:33;;;;;;;0.37;0.37;;;;;;;3.78;71.37;99056.25;5081796;28;20525;-71
2021/04/07 06:41:01;;;;;;;1.53;0.30;;;;;;;3.85;70.32;99060.19;5074986;28;20207;-74
2021/04/07 06:43:31;;;;;;;0.40;0.40;;;;;;;3.98;69.45;99066.38;5071628;28;20452;-73
2021/04/07 06:45:59;;;;;;;7.50;0.30;;;;;;;4.16;70.00;99063.41;5068856;28;20208;-71
2021/04/07 06:48:28;;;;;;;1.93;0.47;;;;;;;4.03;69.89;99007.63;5071271;28;20276;-71
2021/04/07 06:50:55;;;;;;;0.70;0.47;;;;;;;4.75;71.46;99082.31;5079717;28;20275;-72
2021/04/07 06:53:25;;;;;;;1.93;0.63;;;;;;;5.12;70.39;99073.38;5075949;28;20217;-74
2021/04/07 06:55:52;;;;;;;0.83;0.30;;;;;;;5.52;66.83;99063.38;5076768;28;20245;-72
2021/04/07 06:58:20;;;;;;;3.13;0.47;;;;;;;5.79;67.70;99060.41;5082358;28;20201;-72
2021/04/07 07:00:48;;;;;;;4.57;0.80;;;;;;;5.76;67.66;99004.72;5079057;28;20247;-72
2021/04/07 07:03:17;;;;;;;3.57;0.67;;;;;;;6.34;66.71;99090.91;5080471;28;20660;-71
2021/04/07 07:05:46;;;;;;;0.93;0.20;;;;;;;6.16;65.49;99060.34;5079066;28;20285;-72
2021/04/07 07:08:15;;;;;;;1.87;0.33;;;;;;;6.37;66.06;99093.31;5075863;28;20315;-72
2021/04/07 07:10:44;;;;;;;4.20;0.73;;;;;;;6.35;65.51;99073.94;5076143;28;20543;-72
2021/04/07 07:13:16;;;;;;;2.77;0.73;;;;;;;6.44;65.47;99102.56;5083562;28;20197;-72
2021/04/07 07:15:44;;;;;;;2.67;0.70;;;;;;;6.26;65.13;99103.97;5074749;28;20696;-72
2021/04/07 07:18:18;;;;;;;2.20;0.50;;;;;;;6.21;65.79;99106.13;5082550;28;20197;-72
2021/04/07 07:20:45;;;;;;;1.03;0.70;;;;;;;6.20;65.57;99115.94;5072932;28;20287;-72
2021/04/07 07:23:21;;;;;;;1.90;0.47;;;;;;;6.21;65.61;99116.81;5078388;28;20288;-72
2021/04/07 07:25:56;;;;;;;2.77;0.90;;;;;;;6.21;65.50;99119.47;5078920;28;20578;-72
2021/04/07 07:28:24;;;;;;;5.63;0.80;;;;;;;6.09;66.68;99123.03;5073374;28;20577;-72
2021/04/07 07:30:51;;;;;;;1.80;0.67;;;;;;;6.17;66.54;99126.84;5078367;28;20285;-73
2021/04/07 07:33:20;;;;;;;0.73;0.40;;;;;;;6.20;66.96;99129.28;5075014;28;20194;-74
2021/04/07 07:35:49;;;;;;;2.67;0.70;;;;;;;6.22;67.13;99129.16;5075187;28;20308;-72
2021/04/07 07:38:25;;;;;;;1.00;0.53;;;;;;;6.32;67.44;99140.81;5083084;28;20668;-72
2021/04/07 07:41:01;;;;;;;2.93;1.00;;;;;;;6.37;67.02;99133.31;5076519;28;20243;-73
2021/04/07 07:43:29;;;;;;;3.00;0.50;;;;;;;6.18;66.28;99095.72;5073253;28;20221;-73
2021/04/07 07:46:08;;;;;;;1.70;0.60;;;;;;;6.59;65.80;99137.00;5074959;28;20454;-73
2021/04/07 07:48:35;;;;;;;1.10;0.47;;;;;;;6.62;65.96;99139.44;5077837;28;20201;-73
2021/04/07 07:51:13;;;;;;;6.03;0.83;;;;;;;6.74;65.78;99151.84;5078811;28;20203;-73
2021/04/07 07:53:43;;;;;;;1.37;0.60;;;;;;;7.06;65.07;99170.66;5079141;28;20610;-73
2021/04/07 07:56:12;;;;;;;2.80;0.67;;;;;;;7.18;64.72;99156.31;5076614;28;20227;-73
2021/04/07 07:58:45;;;;;;;2.00;0.57;;;;;;;7.26;64.26;99140.53;5082116;28;20739;-73
2021/04/07 08:01:14;;;;;;;1.57;0.70;;;;;;;7.54;63.66;99167.69;5075907;28;20202;-74
2021/04/07 08:03:42;;;;;;;5.80;0.77;;;;;;;7.70;61.96;99162.84;5074764;28;20224;-73
2021/04/07 08:06:10;;;;;;;3.30;0.50;;;;;;;7.71;62.54;99169.88;5078571;28;20896;-73
2021/04/07 08:08:47;;;;;;;2.47;0.60;;;;;;;7.52;60.36;99117.06;5075653;28;20229;-72
2021/04/07 08:11:18;;;;;;;0.47;0.47;;;;;;;7.64;61.48;99174.84;5077125;28;20563;-72
2021/04/07 08:13:47;;;;;;;5.13;0.90;;;;;;;7.61;60.87;99180.44;5085567;28;20279;-73
2021/04/07 08:16:17;;;;;;;4.50;1.00;;;;;;;7.54;60.94;99179.25;5081014;28;20219;-73
2021/04/07 08:18:46;;;;;;;0.87;0.50;;;;;;;7.35;61.10;99189.72;5090806;28;20203;-73
2021/04/07 08:21:14;;;;;;;4.23;0.57;;;;;;;6.92;61.32;99120.19;5086891;28;20291;-73
2021/04/07 08:23:42;;;;;;;3.03;0.60;;;;;;;7.21;61.63;99192.59;5073644;28;20676;-73
2021/04/07 08:26:10;;;;;;;3.23;0.97;;;;;;;7.11;62.51;99188.00;5074244;28;20273;-74
2021/04/07 08:28:41;;;;;;;2.53;0.50;;;;;;;6.87;62.61;99154.38;5080566;28;20211;-74
2021/04/07 08:31:12;;;;;;;7.63;0.90;;;;;;;6.97;64.70;99193.56;5077470;28;20195;-69
2021/04/07 08:33:45;;;;;;;4.67;1.23;;;;;;;6.78;63.84;99171.97;5076474;28;20290;-69
2021/04/07 08:36:15;;;;;;;1.43;1.00;;;;;;;7.12;63.72;99204.88;5078384;28;20222;-69
2021/04/07 08:38:42;;;;;;;5.60;0.83;;;;;;;7.25;63.58;99218.94;5078594;28;20254;-69
2021/04/07 08:41:19;;;;;;;6.33;0.80;;;;;;;7.39;62.04;99221.38;5078281;28;20192;-69
2021/04/07 08:43:47;;;;;;;2.00;0.70;;;;;;;7.14;61.00;99181.56;5081629;28;20208;-69
2021/04/07 08:46:16;;;;;;;6.23;1.17;;;;;;;7.47;62.60;99228.78;5077322;28;20200;-70
2021/04/07 08:48:44;;;;;;;3.00;0.70;;;;;;;7.47;63.75;99210.94;5077561;28;20553;-69
2021/04/07 08:51:13;;;;;;;3.23;0.70;;;;;;;7.74;62.44;99237.25;5075957;28;20276;-69
2021/04/07 08:53:43;;;;;;;3.57;1.10;;;;;;;7.89;61.52;99226.28;5081407;28;20273;-69
2021/04/07 08:56:12;;;;;;;1.80;0.77;;;;;;;7.95;61.62;99242.69;5077331;28;20222;-69
2021/04/07 08:58:51;;;;;;;1.60;0.80;;;;;;;7.86;63.83;99245.25;5081733;28;20253;-73
2021/04/07 09:01:19;;;;;;;6.40;0.70;;;;;;;8.10;62.22;99249.47;5079347;28;20206;-74
2021/04/07 09:03:47;;;;;;;4.67;1.03;;;;;;;8.20;61.04;99252.22;5079859;28;20544;-73
2021/04/07 09:06:15;;;;;;;1.37;0.53;;;;;;;8.46;60.69;99257.28;5080225;28;20202;-73
2021/04/07 09:08:53;;;;;;;4.97;1.30;;;;;;;8.48;60.84;99255.31;5082242;28;20225;-74
2021/04/07 09:11:28;;;;;;;1.03;0.60;;;;;;;8.62;60.14;99247.03;5074615;28;20681;-73
2021/04/07 09:14:00;;;;;;;4.40;0.80;;;;;;;8.84;58.98;99257.59;5087227;28;20629;-73
2021/04/07 09:16:39;;;;;;;7.37;0.70;;;;;;;8.88;57.42;99260.88;5084470;28;20223;-73
2021/04/07 09:19:18;;;;;;;0.80;0.80;;;;;;;8.85;58.14;99258.44;5086116;28;20200;-73
2021/04/07 09:22:00;;;;;;;2.50;0.90;;;;;;;8.92;59.73;99256.97;5078777;28;20212;-73
2021/04/07 09:24:36;;;;;;;0.70;0.67;;;;;;;9.11;58.64;99274.97;5077498;28;20283;-73
2021/04/07 09:27:05;;;;;;;4.33;0.93;;;;;;;8.97;60.93;99268.97;5077980;28;20209;-73
2021/04/07 09:29:38;;;;;;;1.27;0.80;;;;;;;9.23;58.18;99263.22;5079872;28;20302;-73
2021/04/07 09:32:15;;;;;;;3.23;0.53;;;;;;;8.95;56.05;99252.19;5091508;28;20238;-73
2021/04/07 09:34:43;;;;;;;3.13;1.07;;;;;;;9.17;56.38;99264.56;5085704;28;20709;-73
2021/04/07 09:37:12;;;;;;;1.83;0.67;;;;;;;9.17;56.10;99274.44;5075239;28;20195;-73
2021/04/07 09:39:40;;;;;;;2.17;0.50;;;;;;;8.76;54.85;99284.16;5084002;28;20200;-73
2021/04/07 09:42:09;;;;;;;4.47;0.40;;;;;;;8.76;56.66;99273.47;5084864;28;20198;-73
2021/04/07 09:44:37;;;;;;;2.57;0.67;;;;;;;9.01;56.69;99275.75;5079085;28;20745;-73
2021/04/07 09:47:05;;;;;;;5.00;1.00;;;;;;;9.11;56.43;99280.31;5068555;28;20282;-73
2021/04/07 09:49:33;;;;;;;2.03;0.73;;;;;;;8.71;56.69;99275.66;5083316;28;20198;-73
2021/04/07 09:52:01;;;;;;;2.23;1.00;;;;;;;8.49;57.22;99283.78;5073332;28;20198;-73
2021/04/07 09:54:29;;;;;;;1.97;0.60;;;;;;;8.69;57.37;99294.53;5076099;28;20285;-73
2021/04/07 09:56:59;;;;;;;2.47;1.03;;;;;;;8.60;56.61;99299.81;5083721;28;20287;-73
2021/04/07 09:59:39;;;;;;;3.83;0.70;;;;;;;8.95;55.45;99307.56;5081414;28;20713;-74
2021/04/07 10:02:08;;;;;;;2.93;0.93;;;;;;;9.16;56.06;99303.06;5074672;28;20210;-72
2021/04/07 10:04:37;;;;;;;1.77;1.00;;;;;;;9.46;55.83;99299.56;5072324;28;20226;-74
2021/04/07 10:07:15;;;;;;;0.60;0.60;;;;;;;9.67;53.74;99312.09;5075537;28;20228;-74
2021/04/07 10:09:44;;;;;;;3.37;0.80;;;;;;;9.39;53.90;99319.84;5076895;28;20637;-74
2021/04/07 10:12:13;;;;;;;0.60;0.60;;;;;;;9.44;54.40;99312.25;5073983;28;20547;-74
2021/04/07 10:14:47;;;;;;;4.77;0.70;;;;;;;9.51;54.81;99318.81;5079454;28;20795;-74
2021/04/07 10:17:15;;;;;;;3.70;0.70;;;;;;;9.78;53.93;99312.84;5076058;28;20539;-74
2021/04/07 10:19:43;;;;;;;0.83;0.70;;;;;;;9.83;53.66;99324.03;5079284;28;20222;-73
2021/04/07 10:22:17;;;;;;;2.83;0.67;;;;;;;9.96;53.40;99346.09;5072611;28;20735;-74
2021/04/07 10:24:49;;;;;;;3.27;0.87;;;;;;;9.93;52.07;99332.97;5077610;28;20629;-73
2021/04/07 10:27:19;;;;;;;3.93;0.70;;;;;;;9.95;52.85;99331.00;5073752;28;20215;-73
2021/04/07 10:29:47;;;;;;;4.97;0.87;;;;;;;10.24;53.22;99324.91;5072067;28;20618;-72
2021/04/07 10:32:16;;;;;;;1.17;0.60;;;;;;;10.42;52.99;99336.69;5077867;28;20282;-73
2021/04/07 10:34:46;;;;;;;4.77;0.90;;;;;;;10.44;51.28;99339.25;5090596;28;20299;-73
2021/04/07 10:37:16;;;;;;;3.20;0.80;;;;;;;10.30;51.59;99339.63;5074689;28;20379;-73
2021/04/07 10:39:44;;;;;;;2.17;0.73;;;;;;;10.45;50.59;99339.09;5079631;28;20288;-73
2021/04/07 10:42:16;;;;;;;0.47;0.47;;;;;;;10.23;50.68;99342.00;5073209;28;20214;-73
2021/04/07 10:44:43;;;;;;;1.10;0.70;;;;;;;10.03;51.08;99343.72;5074745;28;20549;-70
2021/04/07 10:47:15;;;;;;;1.90;0.80;;;;;;;10.04;50.70;99344.56;5072892;28;20257;-70
2021/04/07 10:49:53;;;;;;;2.23;0.67;;;;;;;10.12;51.03;99347.44;5075711;28;20195;-70
2021/04/07 10:52:31;;;;;;;1.53;0.67;;;;;;;10.14;51.74;99350.84;5075714;28;20644;-69
2021/04/07 10:55:00;;;;;;;2.07;0.77;;;;;;;10.09;51.55;99353.91;5077553;28;20305;-70
2021/04/07 10:57:32;;;;;;;0.80;0.77;;;;;;;10.02;51.59;99343.88;5077705;28;20271;-69
2021/04/07 11:00:01;;;;;;;0.60;0.60;;;;;;;10.00;51.45;99357.41;5074297;28;20199;-70
2021/04/07 11:02:41;;;;;;;2.17;0.70;;;;;;;9.97;51.28;99355.00;5078900;28;20210;-70
2021/04/07 11:05:17;;;;;;;4.70;0.80;;;;;;;9.70;52.15;99368.13;5072864;28;20620;-70
2021/04/07 11:07:45;;;;;;;3.33;0.97;;;;;;;9.72;51.17;99375.03;5073252;28;20236;-70
2021/04/07 11:10:15;;;;;;;1.50;0.70;;;;;;;9.72;51.12;99367.00;5076294;28;20190;-70
2021/04/07 11:12:45;;;;;;;3.80;0.70;;;;;;;9.83;51.98;99369.63;5079186;28;20205;-70
2021/04/07 11:15:15;;;;;;;0.70;0.50;;;;;;;9.77;50.93;99372.81;5077048;28;20307;-70
2021/04/07 11:17:53;;;;;;;4.03;0.73;;;;;;;9.83;51.97;99369.63;5077694;28;20584;-69
2021/04/07 11:20:22;;;;;;;0.83;0.60;;;;;;;9.72;50.75;99366.16;5076395;28;20218;-69
2021/04/07 11:22:52;;;;;;;7.57;0.93;;;;;;;9.44;50.32;99376.56;5071725;28;20264;-70
2021/04/07 11:25:22;;;;;;;1.83;0.63;;;;;;;9.20;50.94;99381.34;5072693;28;20270;-67
2021/04/07 11:27:52;;;;;;;1.40;0.67;;;;;;;8.99;51.42;99386.66;5079972;28;20276;-69
2021/04/07 11:30:22;;;;;;;4.60;1.00;;;;;;;9.20;51.26;99392.06;5076260;28;20486;-69
2021/04/07 11:32:55;;;;;;;1.90;0.50;;;;;;;9.22;51.16;99390.09;5073392;28;21021;-69
2021/04/07 11:35:51;;;;;;;3.10;0.60;;;;;;;9.24;51.72;99394.34;5078257;28;20207;-69
2021/04/07 11:38:20;;;;;;;1.93;0.83;;;;;;;9.24;51.28;99398.84;5070734;28;20191;-69
2021/04/07 11:41:41;;;;;;;4.17;0.60;;;;;;;9.28;50.62;99389.56;5076913;28;20193;-69
2021/04/07 11:46:36;;;;;;;0.40;0.40;;;;;;;8.90;49.25;99411.50;5076881;28;20407;-70
2021/04/07 11:49:05;;;;;;;0.50;0.50;;;;;;;8.98;50.46;99404.53;5077061;28;20239;-72
2021/04/07 11:51:34;;;;;;;4.73;0.80;;;;;;;8.97;49.93;99397.50;5069577;28;20573;-73
2021/04/07 11:54:01;;;;;;;2.33;0.90;;;;;;;9.16;48.62;99403.97;5073353;28;20678;-72